createdAt,value
2022-10-02T00:02:03.768Z,2.28
2022-10-02T00:04:55.814Z,2.15
2022-10-02T00:07:35.625Z,2.05
2022-10-02T00:10:11.276Z,2.63
2022-10-02T00:12:42.876Z,2.55
2022-10-02T00:15:16.960Z,2.58
2022-10-02T00:17:48.085Z,2.80
2022-10-02T00:20:20.127Z,2.75
2022-10-02T00:22:50.590Z,2.15
2022-10-02T00:25:42.419Z,2.80
2022-10-02T00:28:29.188Z,2.40
2022-10-02T00:34:02.643Z,2.65
2022-10-02T00:36:48.811Z,2.13
2022-10-02T00:40:00.093Z,2.50
2022-10-02T00:42:33.422Z,2.60
2022-10-02T00:45:31.863Z,2.88
2022-10-02T00:48:32.780Z,3.15
2022-10-02T00:51:51.031Z,2.47
2022-10-02T00:54:18.184Z,2.50
2022-10-02T00:57:02.912Z,2.15
2022-10-02T01:00:00.635Z,2.05
2022-10-02T01:02:36.781Z,2.40
2022-10-02T01:05:07.634Z,2.60
2022-10-02T01:07:36.988Z,2.42
2022-10-02T01:10:04.673Z,2.30
2022-10-02T01:12:31.969Z,2.53
2022-10-02T01:14:59.207Z,2.55
2022-10-02T01:17:32.047Z,2.75
2022-10-02T01:20:06.060Z,2.63
2022-10-02T01:22:45.698Z,2.65
2022-10-02T01:25:13.306Z,2.95
2022-10-02T01:27:40.597Z,2.55
2022-10-02T01:30:14.361Z,2.55
2022-10-02T01:32:46.057Z,3.05
2022-10-02T01:35:17.690Z,2.38
2022-10-02T01:37:45.107Z,2.63
2022-10-02T01:40:25.328Z,2.03
2022-10-02T01:42:53.540Z,2.47
2022-10-02T01:45:29.847Z,2.30
2022-10-02T01:48:14.343Z,2.67
2022-10-02T01:50:46.096Z,2.05
2022-10-02T01:53:42.727Z,2.72
2022-10-02T01:59:00.965Z,3.05
2022-10-02T02:01:54.097Z,2.17
2022-10-02T02:04:28.453Z,2.80
2022-10-02T02:07:16.232Z,2.55
2022-10-02T02:09:53.027Z,2.85
2022-10-02T02:12:43.784Z,1.92
2022-10-02T02:15:22.920Z,2.88
2022-10-02T02:17:53.945Z,2.28
2022-10-02T02:20:35.269Z,4.75
2022-10-02T02:23:27.011Z,3.15
2022-10-02T02:26:01.620Z,2.72
2022-10-02T02:28:30.925Z,2.58
2022-10-02T02:30:59.060Z,2.53
2022-10-02T02:33:42.163Z,2.75
2022-10-02T02:36:13.459Z,2.80
2022-10-02T02:38:44.821Z,2.22
2022-10-02T02:41:24.911Z,2.95
2022-10-02T02:44:03.274Z,2.30
2022-10-02T02:47:12.797Z,3.30
2022-10-02T02:49:57.836Z,2.58
2022-10-02T02:52:28.793Z,3.53
2022-10-02T02:55:05.550Z,2.75
2022-10-02T02:57:44.714Z,2.78
2022-10-02T03:00:20.151Z,3.10
2022-10-02T03:02:50.443Z,3.05
2022-10-02T03:05:19.084Z,2.15
2022-10-02T03:07:54.443Z,2.67
2022-10-02T03:10:30.584Z,2.40
2022-10-02T03:13:15.806Z,2.50
2022-10-02T03:15:51.856Z,2.20
2022-10-02T03:18:31.459Z,2.53
2022-10-02T03:21:08.221Z,2.28
2022-10-02T03:23:58.207Z,2.33
2022-10-02T03:27:11.648Z,1.92
2022-10-02T03:30:00.187Z,2.20
2022-10-02T03:32:27.927Z,3.17
2022-10-02T03:34:57.298Z,2.95
2022-10-02T03:37:26.780Z,2.28
2022-10-02T03:39:58.545Z,2.40
2022-10-02T03:42:32.015Z,2.25
2022-10-02T03:44:59.245Z,2.30
2022-10-02T03:47:26.654Z,2.15
2022-10-02T03:49:53.935Z,3.22
2022-10-02T03:52:22.530Z,2.40
2022-10-02T03:55:16.074Z,2.80
2022-10-02T03:57:48.158Z,2.70
2022-10-02T04:00:20.018Z,2.38
2022-10-02T04:02:47.553Z,2.58
2022-10-02T04:05:46.720Z,2.03
2022-10-02T04:08:29.182Z,2.97
2022-10-02T04:11:10.868Z,2.28
2022-10-02T04:14:10.239Z,2.28
2022-10-02T04:16:57.711Z,2.60
2022-10-02T04:19:44.599Z,2.92
2022-10-02T04:22:35.502Z,2.40
2022-10-02T04:25:18.691Z,2.95
2022-10-02T04:30:42.771Z,3.38
2022-10-02T04:33:21.826Z,2.55
2022-10-02T04:36:24.347Z,1.95
2022-10-02T04:39:00.749Z,2.50
2022-10-02T04:42:03.877Z,3.08
2022-10-02T04:44:57.237Z,2.25
2022-10-02T04:47:56.518Z,1.77
2022-10-02T04:50:35.626Z,2.97
2022-10-02T04:53:29.140Z,2.00
2022-10-02T04:56:08.480Z,2.15
2022-10-02T04:59:00.375Z,2.42
2022-10-02T05:02:12.057Z,2.58
2022-10-02T05:05:06.554Z,2.30
2022-10-02T05:07:37.078Z,2.22
2022-10-02T05:10:36.375Z,2.00
2022-10-02T05:13:28.371Z,1.90
2022-10-02T05:16:20.454Z,1.77
2022-10-02T05:19:25.925Z,2.50
2022-10-02T05:22:20.670Z,2.38
2022-10-02T05:24:50.914Z,2.08
2022-10-02T05:28:13.230Z,3.28
2022-10-02T05:31:21.897Z,2.03
2022-10-02T05:33:55.267Z,2.22
2022-10-02T05:36:45.036Z,2.25
2022-10-02T05:39:31.275Z,1.60
2022-10-02T05:42:09.133Z,1.95
2022-10-02T05:44:45.621Z,2.30
2022-10-02T05:47:39.462Z,2.05
2022-10-02T05:50:27.765Z,2.20
2022-10-02T05:53:02.162Z,1.75
2022-10-02T05:55:49.453Z,2.67
2022-10-02T05:58:25.622Z,1.85
2022-10-02T06:01:17.449Z,1.73
2022-10-02T06:03:53.576Z,2.30
2022-10-02T06:06:26.761Z,2.15
2022-10-02T06:09:10.638Z,2.65
2022-10-02T06:11:49.004Z,2.05
2022-10-02T06:14:27.871Z,2.55
2022-10-02T06:17:07.787Z,2.10
2022-10-02T06:19:52.246Z,2.20
2022-10-02T06:22:21.947Z,2.63
2022-10-02T06:25:05.175Z,3.00
2022-10-02T06:27:46.874Z,2.28
2022-10-02T06:30:18.222Z,2.03
2022-10-02T06:33:03.668Z,2.30
2022-10-02T06:36:10.472Z,2.58
2022-10-02T06:38:40.398Z,2.15
2022-10-02T06:41:35.291Z,2.20
2022-10-02T06:44:08.460Z,3.03
2022-10-02T06:47:21.341Z,2.78
2022-10-02T06:49:48.505Z,2.00
2022-10-02T06:52:38.273Z,2.30
2022-10-02T06:55:21.050Z,2.42
2022-10-02T06:58:13.984Z,2.17
2022-10-02T07:00:50.802Z,2.58
2022-10-02T07:03:33.293Z,2.75
2022-10-02T07:06:09.558Z,3.47
2022-10-02T07:08:49.225Z,2.65
2022-10-02T07:11:32.804Z,2.60
2022-10-02T07:14:09.064Z,3.05
2022-10-02T07:17:07.429Z,2.72
2022-10-02T07:19:43.794Z,2.65
2022-10-02T07:22:43.410Z,3.63
2022-10-02T07:25:33.078Z,3.45
2022-10-02T07:28:03.588Z,2.97
2022-10-02T07:30:38.232Z,3.08
2022-10-02T07:33:19.462Z,2.88
2022-10-02T07:36:08.481Z,3.20
2022-10-02T07:38:58.678Z,3.92
2022-10-02T07:41:35.952Z,3.22
2022-10-02T07:44:15.379Z,3.58
2022-10-02T07:46:56.384Z,3.33
2022-10-02T07:49:56.512Z,3.85
2022-10-02T07:53:02.070Z,3.53
2022-10-02T07:55:29.331Z,3.90
2022-10-02T07:58:05.268Z,3.60
2022-10-02T08:00:37.193Z,4.53
2022-10-02T08:03:13.294Z,4.38
2022-10-02T08:05:56.632Z,4.60
2022-10-02T08:08:47.020Z,3.45
2022-10-02T08:11:19.627Z,4.80
2022-10-02T08:14:12.570Z,4.35
2022-10-02T08:16:48.756Z,3.97
2022-10-02T08:19:30.926Z,4.50
2022-10-02T08:22:08.359Z,4.13
2022-10-02T08:24:41.778Z,3.63
2022-10-02T08:27:18.780Z,5.10
2022-10-02T08:29:58.401Z,4.78
2022-10-02T08:32:35.070Z,4.93
2022-10-02T08:35:13.281Z,3.92
2022-10-02T08:37:49.467Z,4.28
2022-10-02T08:40:29.655Z,5.20
2022-10-02T08:43:23.173Z,4.40
2022-10-02T08:46:11.333Z,4.47
2022-10-02T08:49:02.753Z,4.03
2022-10-02T08:52:03.152Z,4.72
2022-10-02T08:55:09.541Z,4.13
2022-10-02T08:57:57.348Z,5.88
2022-10-02T09:00:46.247Z,3.00
2022-10-02T09:03:47.934Z,4.53
2022-10-02T09:06:55.414Z,4.57
2022-10-02T09:09:28.730Z,4.72
2022-10-02T09:12:33.551Z,4.55
2022-10-02T09:15:21.087Z,3.65
2022-10-02T09:18:00.118Z,4.55
2022-10-02T09:21:11.314Z,4.05
2022-10-02T09:24:12.495Z,4.30
2022-10-02T09:27:05.495Z,5.18
2022-10-02T09:30:09.768Z,3.85
2022-10-02T09:33:16.218Z,4.20
2022-10-02T09:36:09.608Z,5.13
2022-10-02T09:38:59.130Z,6.15
2022-10-02T09:42:06.147Z,4.75
2022-10-02T09:45:08.870Z,4.22
2022-10-02T09:47:48.536Z,3.75
2022-10-02T09:50:37.576Z,4.22
2022-10-02T09:53:22.788Z,3.72
2022-10-02T09:55:59.366Z,3.92
2022-10-02T09:59:07.743Z,4.72
2022-10-02T10:01:50.634Z,3.85
2022-10-02T10:05:04.058Z,3.47
2022-10-02T10:07:49.964Z,4.68
2022-10-02T10:10:41.934Z,3.20
2022-10-02T10:13:21.631Z,3.20
2022-10-02T10:16:30.351Z,3.38
2022-10-02T10:19:15.116Z,4.25
2022-10-02T10:21:51.417Z,2.90
2022-10-02T10:24:25.321Z,3.20
2022-10-02T10:27:22.060Z,3.67
2022-10-02T10:30:09.907Z,2.97
2022-10-02T10:33:09.454Z,3.42
2022-10-02T10:36:04.745Z,3.40
2022-10-02T10:38:52.317Z,2.40
2022-10-02T10:41:57.591Z,3.45
2022-10-02T10:45:05.816Z,2.78
2022-10-02T10:51:32.903Z,2.90
2022-10-02T10:54:26.146Z,2.30
2022-10-02T11:00:10.251Z,2.20
2022-10-02T11:06:16.958Z,2.00
2022-10-02T11:11:53.402Z,1.98
2022-10-02T11:15:18.125Z,1.98
2022-10-02T11:18:26.893Z,2.47
2022-10-02T11:21:13.897Z,2.55
2022-10-02T11:24:01.937Z,2.20
2022-10-02T11:26:40.144Z,2.45
2022-10-02T11:29:34.784Z,2.55
2022-10-02T11:32:41.764Z,3.00
2022-10-02T11:35:50.931Z,2.80
2022-10-02T11:38:55.593Z,3.00
2022-10-02T11:41:55.301Z,3.30
2022-10-02T11:44:43.831Z,3.58
2022-10-02T11:47:42.877Z,3.10
2022-10-02T11:50:36.431Z,2.13
2022-10-02T11:53:37.101Z,3.90
2022-10-02T11:56:22.636Z,3.63
2022-10-02T11:59:03.820Z,2.42
2022-10-02T12:01:47.552Z,2.35
2022-10-02T12:04:40.249Z,3.03
2022-10-02T12:07:45.089Z,3.25
2022-10-02T12:10:57.574Z,3.10
2022-10-02T12:17:12.704Z,2.83
2022-10-02T12:20:46.308Z,2.95
2022-10-02T12:23:43.343Z,3.30
2022-10-02T12:26:54.879Z,2.38
2022-10-02T12:29:51.699Z,2.40
2022-10-02T12:32:40.816Z,3.17
2022-10-02T12:36:05.508Z,2.85
2022-10-02T12:38:52.225Z,2.70
2022-10-02T12:41:48.225Z,2.47
2022-10-02T12:44:39.541Z,2.40
2022-10-02T12:47:13.746Z,2.65
2022-10-02T12:50:11.188Z,1.48
2022-10-02T12:52:54.118Z,1.48
2022-10-02T12:56:05.570Z,1.70
2022-10-02T12:58:57.288Z,1.95
2022-10-02T13:01:58.263Z,1.90
2022-10-02T13:05:05.578Z,2.78
2022-10-02T13:07:57.016Z,1.60
2022-10-02T13:10:29.287Z,1.60
2022-10-02T13:13:06.861Z,1.83
2022-10-02T13:15:42.911Z,1.60
2022-10-02T13:18:17.851Z,1.90
2022-10-02T13:21:13.567Z,1.98
2022-10-02T13:23:41.967Z,1.70
2022-10-02T13:26:24.049Z,2.08
2022-10-02T13:29:14.880Z,1.30
2022-10-02T13:32:30.234Z,2.33
2022-10-02T13:35:25.170Z,1.75
2022-10-02T13:38:01.210Z,1.70
2022-10-02T13:40:58.600Z,1.88
2022-10-02T13:43:25.918Z,1.27
2022-10-02T13:46:17.850Z,1.67
2022-10-02T13:49:22.476Z,1.67
2022-10-02T13:52:08.698Z,1.88
2022-10-02T13:54:50.097Z,1.95
2022-10-02T13:57:43.269Z,2.03
2022-10-02T14:00:34.835Z,1.67
2022-10-02T14:03:18.084Z,1.67
2022-10-02T14:05:58.106Z,2.08
2022-10-02T14:08:50.860Z,1.80
2022-10-02T14:11:24.106Z,1.48
2022-10-02T14:14:26.352Z,2.42
2022-10-02T14:20:24.238Z,1.85
2022-10-02T14:23:16.122Z,1.95
2022-10-02T14:26:08.555Z,1.70
2022-10-02T14:28:38.665Z,1.25
2022-10-02T14:31:49.865Z,1.70
2022-10-02T14:34:20.004Z,1.40
2022-10-02T14:37:16.727Z,1.88
2022-10-02T14:39:58.703Z,1.40
2022-10-02T14:42:49.929Z,1.63
2022-10-02T14:45:58.983Z,1.40
2022-10-02T14:49:21.262Z,1.30
2022-10-02T14:55:43.434Z,1.27
2022-10-02T14:58:52.763Z,1.33
2022-10-02T15:09:27.860Z,1.30
2022-10-02T15:12:02.036Z,1.25
2022-10-02T15:15:34.261Z,1.40
2022-10-02T15:18:10.538Z,1.42
2022-10-02T15:21:00.401Z,1.00
2022-10-02T15:23:43.933Z,1.25
2022-10-02T15:26:56.734Z,1.55
2022-10-02T15:29:36.025Z,1.20
2022-10-02T15:32:59.508Z,1.60
2022-10-02T15:35:58.358Z,1.40
2022-10-02T15:38:40.741Z,2.75
2022-10-02T15:41:41.362Z,1.50
2022-10-02T15:44:55.459Z,2.15
2022-10-02T15:47:55.937Z,2.03
2022-10-02T15:50:40.704Z,1.50
2022-10-02T15:53:47.227Z,1.55
2022-10-02T15:56:29.576Z,2.33
2022-10-02T15:59:38.632Z,1.38
2022-10-02T16:02:13.357Z,1.83
2022-10-02T16:04:49.923Z,2.33
2022-10-02T16:07:49.402Z,1.40
2022-10-02T16:10:21.392Z,1.50
2022-10-02T16:13:25.100Z,2.60
2022-10-02T16:16:04.755Z,2.03
2022-10-02T16:18:45.746Z,2.50
2022-10-02T16:21:31.320Z,1.98
2022-10-02T16:24:14.452Z,1.75
2022-10-02T16:27:12.224Z,1.50
2022-10-02T16:29:56.400Z,1.58
2022-10-02T16:32:39.381Z,1.85
2022-10-02T16:35:24.183Z,2.58
2022-10-02T16:38:00.027Z,2.03
2022-10-02T16:40:56.857Z,1.90
2022-10-02T16:43:37.482Z,2.33
2022-10-02T16:46:17.978Z,2.17
2022-10-02T16:48:56.485Z,2.17
2022-10-02T16:51:58.421Z,2.08
2022-10-02T16:54:57.074Z,2.15
2022-10-02T16:57:56.458Z,2.13
2022-10-02T17:00:30.164Z,2.55
2022-10-02T17:03:14.514Z,2.60
2022-10-02T17:05:54.900Z,2.30
2022-10-02T17:08:30.641Z,2.45
2022-10-02T17:11:22.990Z,3.00
2022-10-02T17:14:17.381Z,2.45
2022-10-02T17:16:52.531Z,2.53
2022-10-02T17:19:25.603Z,2.50
2022-10-02T17:22:15.108Z,3.10
2022-10-02T17:25:01.623Z,3.00
2022-10-02T17:27:58.647Z,2.75
2022-10-02T17:30:31.652Z,2.67
2022-10-02T17:33:14.112Z,2.67
2022-10-02T17:35:59.361Z,2.95
2022-10-02T17:38:59.769Z,2.85
2022-10-02T17:41:38.454Z,3.05
2022-10-02T17:44:20.383Z,3.70
2022-10-02T17:47:13.412Z,3.13
2022-10-02T17:50:08.305Z,2.03
2022-10-02T17:53:06.464Z,2.47
2022-10-02T17:56:29.347Z,2.28
2022-10-02T17:59:09.467Z,2.75
2022-10-02T18:02:09.087Z,2.65
2022-10-02T18:05:01.559Z,2.80
2022-10-02T18:07:55.620Z,1.95
2022-10-02T18:10:52.427Z,3.17
2022-10-02T18:17:02.490Z,2.40
2022-10-02T18:19:45.928Z,2.80
2022-10-02T18:22:36.420Z,2.83
2022-10-02T18:25:51.355Z,2.75
2022-10-02T18:28:36.301Z,2.75
2022-10-02T18:31:54.626Z,2.88
2022-10-02T18:34:51.905Z,3.25
2022-10-02T18:37:34.011Z,2.03
2022-10-02T18:40:50.051Z,2.35
2022-10-02T18:43:41.216Z,2.60
2022-10-02T18:46:17.228Z,2.35
2022-10-02T18:49:07.322Z,2.80
2022-10-02T18:51:58.617Z,2.90
2022-10-02T18:54:49.236Z,2.75
2022-10-02T18:57:57.579Z,2.42
2022-10-02T19:01:11.662Z,2.67
2022-10-02T19:04:19.979Z,3.47
2022-10-02T19:07:20.211Z,2.50
2022-10-02T19:09:49.678Z,2.80
2022-10-02T19:12:22.798Z,2.53
2022-10-02T19:14:57.526Z,2.63
2022-10-02T19:17:30.663Z,2.57
2022-10-02T19:19:58.710Z,2.08
2022-10-02T19:22:36.473Z,2.55
2022-10-02T19:25:13.677Z,2.65
2022-10-02T19:27:46.795Z,2.80
2022-10-02T19:30:29.365Z,2.50
2022-10-02T19:33:02.081Z,2.20
2022-10-02T19:35:58.845Z,2.40
2022-10-02T19:38:35.792Z,3.08
2022-10-02T19:41:19.342Z,3.90
2022-10-02T19:44:26.940Z,2.85
2022-10-02T19:48:21.111Z,2.92
2022-10-02T19:51:37.082Z,3.55
2022-10-02T19:54:46.678Z,3.38
2022-10-02T19:57:45.672Z,2.85
2022-10-02T20:00:38.586Z,2.47
2022-10-02T20:03:36.882Z,2.70
2022-10-02T20:06:19.608Z,3.08
2022-10-02T20:09:18.110Z,2.40
2022-10-02T20:13:06.374Z,3.13
2022-10-02T20:16:21.684Z,2.35
2022-10-02T20:18:57.857Z,2.75
2022-10-02T20:21:48.513Z,3.17
2022-10-02T20:24:25.642Z,2.72
2022-10-02T20:27:22.855Z,2.70
2022-10-02T20:30:05.542Z,2.63
2022-10-02T20:32:50.660Z,3.05
2022-10-02T20:38:24.210Z,2.30
2022-10-02T20:41:00.204Z,3.95
2022-10-02T20:44:30.595Z,2.60
2022-10-02T20:47:37.415Z,3.00
2022-10-02T20:50:25.453Z,2.80
2022-10-02T20:53:10.529Z,2.92
2022-10-02T20:55:48.324Z,2.45
2022-10-02T20:58:34.311Z,2.83
2022-10-02T21:01:21.226Z,2.75
2022-10-02T21:04:18.496Z,2.58
2022-10-02T21:07:10.897Z,2.55
2022-10-02T21:09:58.390Z,2.72
2022-10-02T21:13:02.253Z,2.72
2022-10-02T21:16:18.424Z,2.95
2022-10-02T21:19:27.184Z,3.95
2022-10-02T21:22:26.369Z,3.15
2022-10-02T21:25:23.657Z,3.20
2022-10-02T21:28:18.462Z,5.70
2022-10-02T21:31:23.852Z,3.00
2022-10-02T21:33:59.887Z,3.67
2022-10-02T21:36:37.237Z,2.58
2022-10-02T21:39:32.924Z,3.58
2022-10-02T21:42:43.296Z,2.73
2022-10-02T21:45:29.395Z,3.15
2022-10-02T21:48:33.812Z,3.05
2022-10-02T21:51:31.619Z,2.90
2022-10-02T21:54:01.773Z,3.53
2022-10-02T21:56:52.625Z,3.28
2022-10-02T21:59:40.953Z,2.47
2022-10-02T22:02:46.950Z,2.47
2022-10-02T22:05:17.336Z,3.35
2022-10-02T22:08:12.714Z,2.75
2022-10-02T22:13:39.222Z,3.13
2022-10-02T22:16:19.949Z,3.03
2022-10-02T22:19:10.766Z,2.60
2022-10-02T22:22:01.750Z,2.88
2022-10-02T22:24:58.124Z,3.22
2022-10-02T22:27:39.143Z,3.28
2022-10-02T22:30:09.296Z,4.03
2022-10-02T22:33:10.722Z,3.33
2022-10-02T22:35:53.603Z,3.53
2022-10-02T22:38:32.832Z,2.90
2022-10-02T22:41:28.781Z,3.50
2022-10-02T22:44:18.125Z,4.00
2022-10-02T22:47:16.712Z,4.15
2022-10-02T22:50:14.961Z,4.10
2022-10-02T22:53:00.713Z,3.40
2022-10-02T22:55:35.807Z,3.10
2022-10-02T22:58:14.672Z,3.15
2022-10-02T23:01:19.938Z,3.00
2022-10-02T23:03:51.597Z,4.47
2022-10-02T23:06:25.406Z,3.45
2022-10-02T23:09:12.438Z,2.88
2022-10-02T23:12:07.530Z,3.67
2022-10-02T23:14:49.896Z,3.97
2022-10-02T23:17:26.142Z,3.42
2022-10-02T23:20:20.201Z,4.07
2022-10-02T23:23:05.721Z,3.42
2022-10-02T23:26:13.168Z,3.80
2022-10-02T23:28:55.484Z,3.30
2022-10-02T23:31:49.060Z,4.65
2022-10-02T23:34:42.716Z,3.17
2022-10-02T23:37:26.907Z,4.15
2022-10-02T23:40:06.280Z,2.60
2022-10-02T23:42:41.651Z,4.10
2022-10-02T23:45:38.258Z,4.15
2022-10-02T23:48:08.098Z,3.92
2022-10-02T23:50:48.443Z,3.30
2022-10-02T23:53:35.322Z,2.90
2022-10-02T23:56:02.366Z,3.47
2022-10-02T23:58:43.323Z,4.25
